sensor_id;sensor_type;location;lat;lon;timestamp;P1;durP1;ratioP1;P2;durP2;ratioP2
41705;SDS011;27385;51.096;17.190;2022-12-18T00:01:58;61.90;;;21.80;;
41705;SDS011;27385;51.096;17.190;2022-12-18T00:04:30;57.90;;;16.70;;
41705;SDS011;27385;51.096;17.190;2022-12-18T00:07:01;55.80;;;18.00;;
41705;SDS011;27385;51.096;17.190;2022-12-18T00:09:33;62.20;;;17.00;;
41705;SDS011;27385;51.096;17.190;2022-12-18T00:12:05;52.50;;;16.90;;
41705;SDS011;27385;51.096;17.190;2022-12-18T00:14:37;49.60;;;15.40;;
41705;SDS011;27385;51.096;17.190;2022-12-18T00:17:13;51.90;;;14.70;;
41705;SDS011;27385;51.096;17.190;2022-12-18T00:19:44;50.40;;;16.10;;
41705;SDS011;27385;51.096;17.190;2022-12-18T00:22:19;49.10;;;14.50;;
41705;SDS011;27385;51.096;17.190;2022-12-18T00:24:52;56.30;;;16.90;;
41705;SDS011;27385;51.096;17.190;2022-12-18T00:27:23;54.20;;;18.40;;
41705;SDS011;27385;51.096;17.190;2022-12-18T00:29:55;47.20;;;15.60;;
41705;SDS011;27385;51.096;17.190;2022-12-18T00:32:26;46.80;;;14.00;;
41705;SDS011;27385;51.096;17.190;2022-12-18T00:34:58;78.80;;;29.40;;
41705;SDS011;27385;51.096;17.190;2022-12-18T00:37:29;66.50;;;23.30;;
41705;SDS011;27385;51.096;17.190;2022-12-18T00:40:02;59.20;;;17.70;;
41705;SDS011;27385;51.096;17.190;2022-12-18T00:42:38;56.10;;;19.30;;
41705;SDS011;27385;51.096;17.190;2022-12-18T00:45:25;55.80;;;17.50;;
41705;SDS011;27385;51.096;17.190;2022-12-18T00:47:59;50.00;;;14.90;;
41705;SDS011;27385;51.096;17.190;2022-12-18T00:50:30;55.20;;;17.50;;
41705;SDS011;27385;51.096;17.190;2022-12-18T00:53:02;55.70;;;18.50;;
41705;SDS011;27385;51.096;17.190;2022-12-18T00:55:36;52.10;;;17.60;;
41705;SDS011;27385;51.096;17.190;2022-12-18T00:58:10;53.60;;;17.60;;
41705;SDS011;27385;51.096;17.190;2022-12-18T01:00:43;58.90;;;18.50;;
41705;SDS011;27385;51.096;17.190;2022-12-18T01:03:14;60.00;;;18.40;;
41705;SDS011;27385;51.096;17.190;2022-12-18T01:05:46;52.60;;;18.30;;
41705;SDS011;27385;51.096;17.190;2022-12-18T01:08:17;44.60;;;14.70;;
41705;SDS011;27385;51.096;17.190;2022-12-18T01:10:49;54.50;;;17.50;;
41705;SDS011;27385;51.096;17.190;2022-12-18T01:13:21;60.60;;;18.50;;
41705;SDS011;27385;51.096;17.190;2022-12-18T01:15:52;57.40;;;17.60;;
41705;SDS011;27385;51.096;17.190;2022-12-18T01:18:24;54.20;;;15.70;;
41705;SDS011;27385;51.096;17.190;2022-12-18T01:20:56;48.80;;;14.60;;
41705;SDS011;27385;51.096;17.190;2022-12-18T01:23:28;56.00;;;15.70;;
41705;SDS011;27385;51.096;17.190;2022-12-18T01:26:03;57.60;;;17.00;;
41705;SDS011;27385;51.096;17.190;2022-12-18T01:28:35;51.60;;;14.20;;
41705;SDS011;27385;51.096;17.190;2022-12-18T01:31:17;58.70;;;16.80;;
41705;SDS011;27385;51.096;17.190;2022-12-18T01:33:49;58.00;;;17.70;;
41705;SDS011;27385;51.096;17.190;2022-12-18T01:36:23;55.80;;;16.50;;
41705;SDS011;27385;51.096;17.190;2022-12-18T01:38:56;58.70;;;16.90;;
41705;SDS011;27385;51.096;17.190;2022-12-18T01:41:32;59.30;;;17.30;;
41705;SDS011;27385;51.096;17.190;2022-12-18T01:47:24;53.60;;;14.90;;
41705;SDS011;27385;51.096;17.190;2022-12-18T01:49:58;62.60;;;16.30;;
41705;SDS011;27385;51.096;17.190;2022-12-18T01:52:32;53.60;;;16.80;;
41705;SDS011;27385;51.096;17.190;2022-12-18T01:55:05;50.60;;;15.50;;
41705;SDS011;27385;51.096;17.190;2022-12-18T01:57:40;55.10;;;15.00;;
41705;SDS011;27385;51.096;17.190;2022-12-18T02:00:19;57.30;;;17.00;;
41705;SDS011;27385;51.096;17.190;2022-12-18T02:02:55;50.30;;;15.80;;
41705;SDS011;27385;51.096;17.190;2022-12-18T02:05:29;58.90;;;17.60;;
41705;SDS011;27385;51.096;17.190;2022-12-18T02:08:15;58.90;;;15.70;;
41705;SDS011;27385;51.096;17.190;2022-12-18T02:10:54;53.70;;;15.80;;
41705;SDS011;27385;51.096;17.190;2022-12-18T02:13:36;56.00;;;16.40;;
41705;SDS011;27385;51.096;17.190;2022-12-18T02:16:12;56.40;;;16.70;;
41705;SDS011;27385;51.096;17.190;2022-12-18T02:18:53;55.10;;;16.30;;
41705;SDS011;27385;51.096;17.190;2022-12-18T02:21:31;49.90;;;15.40;;
41705;SDS011;27385;51.096;17.190;2022-12-18T02:24:14;64.40;;;17.90;;
41705;SDS011;27385;51.096;17.190;2022-12-18T02:26:59;53.40;;;16.00;;
41705;SDS011;27385;51.096;17.190;2022-12-18T02:29:35;51.70;;;17.50;;
41705;SDS011;27385;51.096;17.190;2022-12-18T02:32:12;70.30;;;18.90;;
41705;SDS011;27385;51.096;17.190;2022-12-18T02:34:47;63.40;;;18.40;;
41705;SDS011;27385;51.096;17.190;2022-12-18T02:37:22;64.80;;;17.90;;
41705;SDS011;27385;51.096;17.190;2022-12-18T02:39:57;57.50;;;17.70;;
41705;SDS011;27385;51.096;17.190;2022-12-18T02:42:32;55.50;;;18.00;;
41705;SDS011;27385;51.096;17.190;2022-12-18T02:45:04;58.80;;;19.30;;
41705;SDS011;27385;51.096;17.190;2022-12-18T02:47:39;58.70;;;18.10;;
41705;SDS011;27385;51.096;17.190;2022-12-18T02:50:13;61.80;;;18.20;;
41705;SDS011;27385;51.096;17.190;2022-12-18T02:52:55;53.60;;;17.40;;
41705;SDS011;27385;51.096;17.190;2022-12-18T02:55:49;57.80;;;18.50;;
41705;SDS011;27385;51.096;17.190;2022-12-18T02:58:29;60.10;;;18.10;;
41705;SDS011;27385;51.096;17.190;2022-12-18T03:01:07;55.90;;;17.80;;
41705;SDS011;27385;51.096;17.190;2022-12-18T03:03:46;53.50;;;17.30;;
41705;SDS011;27385;51.096;17.190;2022-12-18T03:06:22;59.00;;;19.40;;
41705;SDS011;27385;51.096;17.190;2022-12-18T03:08:58;56.50;;;16.70;;
41705;SDS011;27385;51.096;17.190;2022-12-18T03:11:32;53.30;;;15.70;;
41705;SDS011;27385;51.096;17.190;2022-12-18T03:14:27;55.60;;;15.50;;
41705;SDS011;27385;51.096;17.190;2022-12-18T03:17:02;58.70;;;17.90;;
41705;SDS011;27385;51.096;17.190;2022-12-18T03:19:41;50.20;;;16.90;;
41705;SDS011;27385;51.096;17.190;2022-12-18T03:22:18;59.70;;;17.10;;
41705;SDS011;27385;51.096;17.190;2022-12-18T03:24:52;55.90;;;15.60;;
41705;SDS011;27385;51.096;17.190;2022-12-18T03:27:25;52.60;;;16.10;;
41705;SDS011;27385;51.096;17.190;2022-12-18T03:30:01;48.20;;;14.80;;
41705;SDS011;27385;51.096;17.190;2022-12-18T03:32:39;53.30;;;16.00;;
41705;SDS011;27385;51.096;17.190;2022-12-18T03:35:19;57.10;;;17.90;;
41705;SDS011;27385;51.096;17.190;2022-12-18T03:37:54;51.10;;;16.00;;
41705;SDS011;27385;51.096;17.190;2022-12-18T03:40:29;50.60;;;17.10;;
41705;SDS011;27385;51.096;17.190;2022-12-18T03:43:06;49.90;;;15.60;;
41705;SDS011;27385;51.096;17.190;2022-12-18T03:45:41;58.60;;;17.80;;
41705;SDS011;27385;51.096;17.190;2022-12-18T03:48:19;59.00;;;16.30;;
41705;SDS011;27385;51.096;17.190;2022-12-18T03:50:59;48.80;;;15.00;;
41705;SDS011;27385;51.096;17.190;2022-12-18T03:53:37;51.20;;;14.50;;
41705;SDS011;27385;51.096;17.190;2022-12-18T03:56:14;47.20;;;14.30;;
41705;SDS011;27385;51.096;17.190;2022-12-18T03:58:48;56.80;;;14.20;;
41705;SDS011;27385;51.096;17.190;2022-12-18T04:01:24;56.70;;;16.80;;
41705;SDS011;27385;51.096;17.190;2022-12-18T04:04:00;48.50;;;15.10;;
41705;SDS011;27385;51.096;17.190;2022-12-18T04:06:36;49.30;;;15.50;;
41705;SDS011;27385;51.096;17.190;2022-12-18T04:09:10;54.70;;;16.20;;
41705;SDS011;27385;51.096;17.190;2022-12-18T04:11:41;50.50;;;14.70;;
41705;SDS011;27385;51.096;17.190;2022-12-18T04:14:12;52.50;;;16.50;;
41705;SDS011;27385;51.096;17.190;2022-12-18T04:16:44;48.10;;;15.40;;
41705;SDS011;27385;51.096;17.190;2022-12-18T04:19:15;46.00;;;14.60;;
41705;SDS011;27385;51.096;17.190;2022-12-18T04:21:47;49.20;;;16.80;;
41705;SDS011;27385;51.096;17.190;2022-12-18T04:24:18;51.50;;;14.40;;
41705;SDS011;27385;51.096;17.190;2022-12-18T04:26:50;47.10;;;13.90;;
41705;SDS011;27385;51.096;17.190;2022-12-18T04:29:22;53.80;;;15.90;;
41705;SDS011;27385;51.096;17.190;2022-12-18T04:31:54;50.30;;;16.10;;
41705;SDS011;27385;51.096;17.190;2022-12-18T04:34:26;48.70;;;13.80;;
41705;SDS011;27385;51.096;17.190;2022-12-18T04:36:57;54.20;;;17.00;;
41705;SDS011;27385;51.096;17.190;2022-12-18T04:39:33;44.20;;;13.20;;
41705;SDS011;27385;51.096;17.190;2022-12-18T04:42:11;58.70;;;15.90;;
41705;SDS011;27385;51.096;17.190;2022-12-18T04:44:43;52.50;;;16.20;;
41705;SDS011;27385;51.096;17.190;2022-12-18T04:47:14;53.50;;;14.80;;
41705;SDS011;27385;51.096;17.190;2022-12-18T04:49:45;49.30;;;15.70;;
41705;SDS011;27385;51.096;17.190;2022-12-18T04:52:17;45.50;;;14.60;;
41705;SDS011;27385;51.096;17.190;2022-12-18T04:54:48;50.30;;;15.30;;
41705;SDS011;27385;51.096;17.190;2022-12-18T04:57:20;46.10;;;13.80;;
41705;SDS011;27385;51.096;17.190;2022-12-18T04:59:51;55.20;;;17.80;;
41705;SDS011;27385;51.096;17.190;2022-12-18T05:02:22;55.00;;;16.90;;
41705;SDS011;27385;51.096;17.190;2022-12-18T05:04:54;45.60;;;14.90;;
41705;SDS011;27385;51.096;17.190;2022-12-18T05:07:26;55.90;;;17.70;;
41705;SDS011;27385;51.096;17.190;2022-12-18T05:09:57;49.00;;;15.90;;
41705;SDS011;27385;51.096;17.190;2022-12-18T05:12:28;53.20;;;16.20;;
41705;SDS011;27385;51.096;17.190;2022-12-18T05:15:08;60.10;;;17.90;;
41705;SDS011;27385;51.096;17.190;2022-12-18T05:17:39;53.10;;;16.70;;
41705;SDS011;27385;51.096;17.190;2022-12-18T05:20:11;46.70;;;16.10;;
41705;SDS011;27385;51.096;17.190;2022-12-18T05:22:43;58.90;;;20.60;;
41705;SDS011;27385;51.096;17.190;2022-12-18T05:25:14;62.40;;;20.80;;
41705;SDS011;27385;51.096;17.190;2022-12-18T05:27:46;64.40;;;18.30;;
41705;SDS011;27385;51.096;17.190;2022-12-18T05:30:19;73.50;;;22.30;;
41705;SDS011;27385;51.096;17.190;2022-12-18T05:32:51;51.60;;;17.30;;
41705;SDS011;27385;51.096;17.190;2022-12-18T05:35:22;56.20;;;16.50;;
41705;SDS011;27385;51.096;17.190;2022-12-18T05:37:53;68.20;;;24.50;;
41705;SDS011;27385;51.096;17.190;2022-12-18T05:40:24;62.00;;;22.50;;
41705;SDS011;27385;51.096;17.190;2022-12-18T05:42:57;63.90;;;20.50;;
41705;SDS011;27385;51.096;17.190;2022-12-18T05:45:38;63.50;;;21.40;;
41705;SDS011;27385;51.096;17.190;2022-12-18T05:48:12;58.10;;;18.30;;
41705;SDS011;27385;51.096;17.190;2022-12-18T05:50:44;58.30;;;20.70;;
41705;SDS011;27385;51.096;17.190;2022-12-18T05:53:18;59.80;;;18.20;;
41705;SDS011;27385;51.096;17.190;2022-12-18T05:55:50;50.40;;;15.20;;
41705;SDS011;27385;51.096;17.190;2022-12-18T05:58:21;56.90;;;17.60;;
41705;SDS011;27385;51.096;17.190;2022-12-18T06:00:52;63.40;;;17.80;;
41705;SDS011;27385;51.096;17.190;2022-12-18T06:03:24;53.70;;;18.40;;
41705;SDS011;27385;51.096;17.190;2022-12-18T06:05:56;50.90;;;18.20;;
41705;SDS011;27385;51.096;17.190;2022-12-18T06:08:30;49.00;;;18.80;;
41705;SDS011;27385;51.096;17.190;2022-12-18T06:11:01;54.20;;;18.40;;
41705;SDS011;27385;51.096;17.190;2022-12-18T06:13:33;52.60;;;20.80;;
41705;SDS011;27385;51.096;17.190;2022-12-18T06:16:05;52.70;;;18.10;;
41705;SDS011;27385;51.096;17.190;2022-12-18T06:18:41;58.20;;;18.60;;
41705;SDS011;27385;51.096;17.190;2022-12-18T06:21:13;55.20;;;18.00;;
41705;SDS011;27385;51.096;17.190;2022-12-18T06:23:45;51.20;;;19.80;;
41705;SDS011;27385;51.096;17.190;2022-12-18T06:26:19;52.40;;;16.90;;
41705;SDS011;27385;51.096;17.190;2022-12-18T06:28:51;59.90;;;19.90;;
41705;SDS011;27385;51.096;17.190;2022-12-18T06:31:22;63.10;;;21.30;;
41705;SDS011;27385;51.096;17.190;2022-12-18T06:33:54;59.50;;;19.00;;
41705;SDS011;27385;51.096;17.190;2022-12-18T06:36:29;63.90;;;21.30;;
41705;SDS011;27385;51.096;17.190;2022-12-18T06:39:01;60.60;;;19.80;;
41705;SDS011;27385;51.096;17.190;2022-12-18T06:41:32;69.40;;;22.00;;
41705;SDS011;27385;51.096;17.190;2022-12-18T06:44:04;69.40;;;24.00;;
41705;SDS011;27385;51.096;17.190;2022-12-18T06:46:36;67.20;;;23.70;;
41705;SDS011;27385;51.096;17.190;2022-12-18T06:49:07;68.80;;;22.10;;
41705;SDS011;27385;51.096;17.190;2022-12-18T06:51:39;66.50;;;23.50;;
41705;SDS011;27385;51.096;17.190;2022-12-18T06:54:10;67.80;;;22.10;;
41705;SDS011;27385;51.096;17.190;2022-12-18T06:56:42;67.90;;;24.30;;
41705;SDS011;27385;51.096;17.190;2022-12-18T06:59:15;61.00;;;22.50;;
41705;SDS011;27385;51.096;17.190;2022-12-18T07:01:47;68.30;;;24.80;;
41705;SDS011;27385;51.096;17.190;2022-12-18T07:04:20;73.60;;;28.10;;
41705;SDS011;27385;51.096;17.190;2022-12-18T07:06:52;76.30;;;28.50;;
41705;SDS011;27385;51.096;17.190;2022-12-18T07:09:24;77.70;;;29.60;;
41705;SDS011;27385;51.096;17.190;2022-12-18T07:11:57;81.90;;;31.70;;
41705;SDS011;27385;51.096;17.190;2022-12-18T07:14:28;79.80;;;29.50;;
41705;SDS011;27385;51.096;17.190;2022-12-18T07:16:59;67.50;;;23.00;;
41705;SDS011;27385;51.096;17.190;2022-12-18T07:19:31;68.70;;;23.00;;
41705;SDS011;27385;51.096;17.190;2022-12-18T07:22:03;120.30;;;44.00;;
41705;SDS011;27385;51.096;17.190;2022-12-18T07:24:35;116.90;;;41.90;;
41705;SDS011;27385;51.096;17.190;2022-12-18T07:27:07;82.30;;;28.70;;
41705;SDS011;27385;51.096;17.190;2022-12-18T07:29:39;71.40;;;25.30;;
41705;SDS011;27385;51.096;17.190;2022-12-18T07:32:10;74.40;;;25.50;;
41705;SDS011;27385;51.096;17.190;2022-12-18T07:34:41;80.20;;;30.10;;
41705;SDS011;27385;51.096;17.190;2022-12-18T07:37:13;77.60;;;28.30;;
41705;SDS011;27385;51.096;17.190;2022-12-18T07:39:56;78.30;;;27.40;;
41705;SDS011;27385;51.096;17.190;2022-12-18T07:42:28;79.20;;;29.90;;
41705;SDS011;27385;51.096;17.190;2022-12-18T07:45:00;71.60;;;29.30;;
41705;SDS011;27385;51.096;17.190;2022-12-18T07:47:33;65.90;;;25.10;;
41705;SDS011;27385;51.096;17.190;2022-12-18T07:50:06;62.90;;;24.20;;
41705;SDS011;27385;51.096;17.190;2022-12-18T07:52:39;73.20;;;24.40;;
41705;SDS011;27385;51.096;17.190;2022-12-18T07:55:11;77.80;;;25.50;;
41705;SDS011;27385;51.096;17.190;2022-12-18T07:57:43;75.20;;;25.90;;
41705;SDS011;27385;51.096;17.190;2022-12-18T08:00:16;74.50;;;25.80;;
41705;SDS011;27385;51.096;17.190;2022-12-18T08:02:48;76.30;;;28.30;;
41705;SDS011;27385;51.096;17.190;2022-12-18T08:05:20;74.70;;;27.00;;
41705;SDS011;27385;51.096;17.190;2022-12-18T08:07:52;75.40;;;28.70;;
41705;SDS011;27385;51.096;17.190;2022-12-18T08:10:24;72.70;;;26.40;;
41705;SDS011;27385;51.096;17.190;2022-12-18T08:12:55;74.40;;;26.70;;
41705;SDS011;27385;51.096;17.190;2022-12-18T08:15:27;71.60;;;24.60;;
41705;SDS011;27385;51.096;17.190;2022-12-18T08:17:59;76.00;;;26.60;;
41705;SDS011;27385;51.096;17.190;2022-12-18T08:20:30;73.30;;;27.30;;
41705;SDS011;27385;51.096;17.190;2022-12-18T08:23:02;79.40;;;28.10;;
41705;SDS011;27385;51.096;17.190;2022-12-18T08:25:35;62.30;;;23.70;;
41705;SDS011;27385;51.096;17.190;2022-12-18T08:28:06;54.30;;;22.00;;
41705;SDS011;27385;51.096;17.190;2022-12-18T08:30:37;65.80;;;23.30;;
41705;SDS011;27385;51.096;17.190;2022-12-18T08:33:11;69.70;;;22.60;;
41705;SDS011;27385;51.096;17.190;2022-12-18T08:35:43;58.90;;;21.80;;
41705;SDS011;27385;51.096;17.190;2022-12-18T08:38:15;62.60;;;25.40;;
41705;SDS011;27385;51.096;17.190;2022-12-18T08:40:47;67.20;;;24.60;;
41705;SDS011;27385;51.096;17.190;2022-12-18T08:43:18;59.50;;;22.70;;
41705;SDS011;27385;51.096;17.190;2022-12-18T08:46:08;70.60;;;26.60;;
41705;SDS011;27385;51.096;17.190;2022-12-18T08:48:40;58.80;;;21.90;;
41705;SDS011;27385;51.096;17.190;2022-12-18T08:51:15;53.80;;;21.00;;
41705;SDS011;27385;51.096;17.190;2022-12-18T08:53:47;54.50;;;19.40;;
41705;SDS011;27385;51.096;17.190;2022-12-18T08:56:19;62.10;;;20.90;;
41705;SDS011;27385;51.096;17.190;2022-12-18T08:58:52;66.00;;;23.10;;
41705;SDS011;27385;51.096;17.190;2022-12-18T09:01:24;56.20;;;22.00;;
41705;SDS011;27385;51.096;17.190;2022-12-18T09:03:56;60.30;;;21.60;;
41705;SDS011;27385;51.096;17.190;2022-12-18T09:06:27;54.20;;;20.40;;
41705;SDS011;27385;51.096;17.190;2022-12-18T09:09:01;64.00;;;23.40;;
41705;SDS011;27385;51.096;17.190;2022-12-18T09:11:33;62.60;;;23.80;;
41705;SDS011;27385;51.096;17.190;2022-12-18T09:14:05;70.10;;;25.50;;
41705;SDS011;27385;51.096;17.190;2022-12-18T09:16:39;70.70;;;23.50;;
41705;SDS011;27385;51.096;17.190;2022-12-18T09:19:11;58.20;;;21.20;;
41705;SDS011;27385;51.096;17.190;2022-12-18T09:21:43;74.80;;;26.90;;
41705;SDS011;27385;51.096;17.190;2022-12-18T09:24:17;63.40;;;23.20;;
41705;SDS011;27385;51.096;17.190;2022-12-18T09:26:53;57.20;;;21.50;;
41705;SDS011;27385;51.096;17.190;2022-12-18T09:29:25;65.20;;;25.10;;
41705;SDS011;27385;51.096;17.190;2022-12-18T09:32:00;56.90;;;21.40;;
41705;SDS011;27385;51.096;17.190;2022-12-18T09:34:31;61.70;;;22.80;;
41705;SDS011;27385;51.096;17.190;2022-12-18T09:37:03;49.00;;;20.90;;
41705;SDS011;27385;51.096;17.190;2022-12-18T09:39:38;57.20;;;22.30;;
41705;SDS011;27385;51.096;17.190;2022-12-18T09:42:14;53.30;;;19.30;;
41705;SDS011;27385;51.096;17.190;2022-12-18T09:44:51;59.90;;;24.50;;
41705;SDS011;27385;51.096;17.190;2022-12-18T09:47:25;64.40;;;22.80;;
41705;SDS011;27385;51.096;17.190;2022-12-18T09:50:01;62.50;;;24.40;;
41705;SDS011;27385;51.096;17.190;2022-12-18T09:52:48;58.00;;;23.40;;
41705;SDS011;27385;51.096;17.190;2022-12-18T09:55:24;66.30;;;24.80;;
41705;SDS011;27385;51.096;17.190;2022-12-18T09:58:00;68.10;;;29.10;;
41705;SDS011;27385;51.096;17.190;2022-12-18T10:00:35;59.50;;;22.10;;
41705;SDS011;27385;51.096;17.190;2022-12-18T10:03:11;59.90;;;21.10;;
41705;SDS011;27385;51.096;17.190;2022-12-18T10:05:47;53.50;;;21.80;;
41705;SDS011;27385;51.096;17.190;2022-12-18T10:08:27;67.00;;;22.10;;
41705;SDS011;27385;51.096;17.190;2022-12-18T10:11:13;64.20;;;23.20;;
41705;SDS011;27385;51.096;17.190;2022-12-18T10:13:57;59.50;;;23.10;;
41705;SDS011;27385;51.096;17.190;2022-12-18T10:16:39;53.60;;;20.40;;
41705;SDS011;27385;51.096;17.190;2022-12-18T10:19:22;64.10;;;21.30;;
41705;SDS011;27385;51.096;17.190;2022-12-18T10:22:03;59.40;;;22.10;;
41705;SDS011;27385;51.096;17.190;2022-12-18T10:24:46;56.10;;;20.30;;
41705;SDS011;27385;51.096;17.190;2022-12-18T10:27:23;56.30;;;20.00;;
41705;SDS011;27385;51.096;17.190;2022-12-18T10:29:56;52.60;;;19.40;;
41705;SDS011;27385;51.096;17.190;2022-12-18T10:32:30;63.70;;;23.70;;
41705;SDS011;27385;51.096;17.190;2022-12-18T10:35:02;62.30;;;29.20;;
41705;SDS011;27385;51.096;17.190;2022-12-18T10:37:38;60.40;;;22.60;;
41705;SDS011;27385;51.096;17.190;2022-12-18T10:40:31;60.60;;;22.20;;
41705;SDS011;27385;51.096;17.190;2022-12-18T10:43:19;54.30;;;19.60;;
41705;SDS011;27385;51.096;17.190;2022-12-18T10:46:13;55.60;;;20.00;;
41705;SDS011;27385;51.096;17.190;2022-12-18T10:48:51;50.20;;;18.60;;
41705;SDS011;27385;51.096;17.190;2022-12-18T10:51:25;58.60;;;21.40;;
41705;SDS011;27385;51.096;17.190;2022-12-18T10:54:02;58.70;;;20.90;;
41705;SDS011;27385;51.096;17.190;2022-12-18T10:59:14;51.20;;;19.00;;
41705;SDS011;27385;51.096;17.190;2022-12-18T11:01:47;58.50;;;22.00;;
41705;SDS011;27385;51.096;17.190;2022-12-18T11:04:23;58.70;;;22.40;;
41705;SDS011;27385;51.096;17.190;2022-12-18T11:06:59;67.10;;;23.90;;
41705;SDS011;27385;51.096;17.190;2022-12-18T11:09:33;67.20;;;25.20;;
41705;SDS011;27385;51.096;17.190;2022-12-18T11:12:15;65.10;;;24.00;;
41705;SDS011;27385;51.096;17.190;2022-12-18T11:14:49;66.80;;;25.10;;
41705;SDS011;27385;51.096;17.190;2022-12-18T11:17:28;71.70;;;26.40;;
41705;SDS011;27385;51.096;17.190;2022-12-18T11:20:02;66.50;;;25.10;;
41705;SDS011;27385;51.096;17.190;2022-12-18T11:22:36;67.20;;;24.90;;
41705;SDS011;27385;51.096;17.190;2022-12-18T11:25:17;66.00;;;25.90;;
41705;SDS011;27385;51.096;17.190;2022-12-18T11:27:50;75.00;;;27.30;;
41705;SDS011;27385;51.096;17.190;2022-12-18T11:30:26;82.70;;;30.00;;
41705;SDS011;27385;51.096;17.190;2022-12-18T11:33:00;81.10;;;31.50;;
41705;SDS011;27385;51.096;17.190;2022-12-18T11:35:39;90.50;;;30.80;;
41705;SDS011;27385;51.096;17.190;2022-12-18T11:38:19;75.80;;;30.30;;
41705;SDS011;27385;51.096;17.190;2022-12-18T11:40:55;73.90;;;29.60;;
41705;SDS011;27385;51.096;17.190;2022-12-18T11:43:29;81.40;;;29.60;;
41705;SDS011;27385;51.096;17.190;2022-12-18T11:46:08;73.30;;;28.90;;
41705;SDS011;27385;51.096;17.190;2022-12-18T11:48:44;77.00;;;28.60;;
41705;SDS011;27385;51.096;17.190;2022-12-18T11:51:22;79.50;;;27.70;;
41705;SDS011;27385;51.096;17.190;2022-12-18T11:54:01;72.40;;;26.50;;
41705;SDS011;27385;51.096;17.190;2022-12-18T11:56:44;73.20;;;26.60;;
41705;SDS011;27385;51.096;17.190;2022-12-18T11:59:20;67.40;;;25.90;;
41705;SDS011;27385;51.096;17.190;2022-12-18T12:02:01;65.80;;;23.00;;
41705;SDS011;27385;51.096;17.190;2022-12-18T12:04:50;72.80;;;26.70;;
41705;SDS011;27385;51.096;17.190;2022-12-18T12:07:35;82.10;;;30.40;;
41705;SDS011;27385;51.096;17.190;2022-12-18T12:10:20;81.60;;;31.20;;
41705;SDS011;27385;51.096;17.190;2022-12-18T12:13:16;77.50;;;28.60;;
41705;SDS011;27385;51.096;17.190;2022-12-18T12:15:58;67.40;;;23.50;;
41705;SDS011;27385;51.096;17.190;2022-12-18T12:18:43;71.50;;;27.30;;
41705;SDS011;27385;51.096;17.190;2022-12-18T12:21:23;64.30;;;23.50;;
41705;SDS011;27385;51.096;17.190;2022-12-18T12:24:03;67.70;;;26.70;;
41705;SDS011;27385;51.096;17.190;2022-12-18T12:26:43;66.30;;;25.50;;
41705;SDS011;27385;51.096;17.190;2022-12-18T12:29:26;77.50;;;28.60;;
41705;SDS011;27385;51.096;17.190;2022-12-18T12:32:15;80.20;;;30.30;;
41705;SDS011;27385;51.096;17.190;2022-12-18T12:35:08;88.00;;;34.00;;
41705;SDS011;27385;51.096;17.190;2022-12-18T12:37:55;79.60;;;29.20;;
41705;SDS011;27385;51.096;17.190;2022-12-18T12:40:36;93.20;;;34.00;;
41705;SDS011;27385;51.096;17.190;2022-12-18T12:43:15;85.20;;;29.30;;
41705;SDS011;27385;51.096;17.190;2022-12-18T12:45:55;89.80;;;29.50;;
41705;SDS011;27385;51.096;17.190;2022-12-18T12:48:37;83.30;;;30.60;;
41705;SDS011;27385;51.096;17.190;2022-12-18T12:51:15;94.00;;;38.40;;
41705;SDS011;27385;51.096;17.190;2022-12-18T12:53:53;79.20;;;31.00;;
41705;SDS011;27385;51.096;17.190;2022-12-18T12:56:30;80.70;;;31.80;;
41705;SDS011;27385;51.096;17.190;2022-12-18T12:59:10;108.10;;;37.80;;
41705;SDS011;27385;51.096;17.190;2022-12-18T13:01:52;105.60;;;39.60;;
41705;SDS011;27385;51.096;17.190;2022-12-18T13:04:30;92.30;;;37.70;;
41705;SDS011;27385;51.096;17.190;2022-12-18T13:07:12;95.60;;;35.90;;
41705;SDS011;27385;51.096;17.190;2022-12-18T13:12:53;103.30;;;38.50;;
41705;SDS011;27385;51.096;17.190;2022-12-18T13:15:28;88.30;;;29.80;;
41705;SDS011;27385;51.096;17.190;2022-12-18T13:18:10;93.10;;;33.70;;
41705;SDS011;27385;51.096;17.190;2022-12-18T13:20:48;85.70;;;32.00;;
41705;SDS011;27385;51.096;17.190;2022-12-18T13:23:40;103.50;;;40.60;;
41705;SDS011;27385;51.096;17.190;2022-12-18T13:26:31;92.10;;;35.70;;
41705;SDS011;27385;51.096;17.190;2022-12-18T13:29:03;79.30;;;30.80;;
41705;SDS011;27385;51.096;17.190;2022-12-18T13:34:40;74.50;;;33.40;;
41705;SDS011;27385;51.096;17.190;2022-12-18T13:43:26;81.70;;;31.50;;
41705;SDS011;27385;51.096;17.190;2022-12-18T13:46:01;96.30;;;37.70;;
41705;SDS011;27385;51.096;17.190;2022-12-18T13:48:51;77.60;;;31.20;;
41705;SDS011;27385;51.096;17.190;2022-12-18T13:51:25;78.50;;;28.80;;
41705;SDS011;27385;51.096;17.190;2022-12-18T13:53:58;80.00;;;27.60;;
41705;SDS011;27385;51.096;17.190;2022-12-18T13:56:32;77.00;;;30.50;;
41705;SDS011;27385;51.096;17.190;2022-12-18T13:59:14;85.70;;;33.00;;
41705;SDS011;27385;51.096;17.190;2022-12-18T14:01:48;97.10;;;37.10;;
41705;SDS011;27385;51.096;17.190;2022-12-18T14:04:23;101.00;;;40.80;;
41705;SDS011;27385;51.096;17.190;2022-12-18T14:07:04;81.40;;;30.60;;
41705;SDS011;27385;51.096;17.190;2022-12-18T14:09:42;84.80;;;33.20;;
41705;SDS011;27385;51.096;17.190;2022-12-18T14:12:19;88.60;;;32.30;;
41705;SDS011;27385;51.096;17.190;2022-12-18T14:15:20;93.60;;;35.00;;
41705;SDS011;27385;51.096;17.190;2022-12-18T14:18:02;84.90;;;33.30;;
41705;SDS011;27385;51.096;17.190;2022-12-18T14:20:49;101.10;;;35.60;;
41705;SDS011;27385;51.096;17.190;2022-12-18T14:23:29;111.50;;;43.40;;
41705;SDS011;27385;51.096;17.190;2022-12-18T14:26:03;102.80;;;38.30;;
41705;SDS011;27385;51.096;17.190;2022-12-18T14:28:53;108.50;;;39.40;;
41705;SDS011;27385;51.096;17.190;2022-12-18T14:31:25;110.20;;;42.80;;
41705;SDS011;27385;51.096;17.190;2022-12-18T14:33:58;118.60;;;42.30;;
41705;SDS011;27385;51.096;17.190;2022-12-18T14:36:30;105.30;;;44.80;;
41705;SDS011;27385;51.096;17.190;2022-12-18T14:39:05;108.80;;;42.50;;
41705;SDS011;27385;51.096;17.190;2022-12-18T14:41:46;113.50;;;43.30;;
41705;SDS011;27385;51.096;17.190;2022-12-18T14:44:20;115.70;;;41.00;;
41705;SDS011;27385;51.096;17.190;2022-12-18T14:46:53;105.00;;;38.50;;
41705;SDS011;27385;51.096;17.190;2022-12-18T14:49:29;109.10;;;40.30;;
41705;SDS011;27385;51.096;17.190;2022-12-18T14:52:03;106.30;;;40.60;;
41705;SDS011;27385;51.096;17.190;2022-12-18T14:54:35;94.60;;;34.10;;
41705;SDS011;27385;51.096;17.190;2022-12-18T14:57:14;104.40;;;38.70;;
41705;SDS011;27385;51.096;17.190;2022-12-18T14:59:50;101.10;;;36.70;;
41705;SDS011;27385;51.096;17.190;2022-12-18T15:02:22;112.50;;;41.00;;
41705;SDS011;27385;51.096;17.190;2022-12-18T15:05:01;98.20;;;38.30;;
41705;SDS011;27385;51.096;17.190;2022-12-18T15:07:40;99.70;;;35.60;;
41705;SDS011;27385;51.096;17.190;2022-12-18T15:10:15;102.50;;;36.30;;
41705;SDS011;27385;51.096;17.190;2022-12-18T15:12:49;102.30;;;39.00;;
41705;SDS011;27385;51.096;17.190;2022-12-18T15:15:45;90.70;;;34.70;;